createdAt,value
2023-05-24T00:03:05.488Z,100297.52
2023-05-24T00:06:54.042Z,100299.84
2023-05-24T00:10:43.276Z,100305.29
2023-05-24T00:14:34.040Z,100307.92
2023-05-24T00:18:15.750Z,100310.04
2023-05-24T00:22:04.239Z,100313.02
2023-05-24T00:25:52.854Z,100306.45
2023-05-24T00:29:41.368Z,100310.27
2023-05-24T00:33:29.868Z,100307.67
2023-05-24T00:37:18.830Z,100301.96
2023-05-24T00:41:07.530Z,100305.67
2023-05-24T00:44:55.989Z,100304.76
2023-05-24T00:48:48.258Z,100306.70
2023-05-24T00:52:36.767Z,100306.11
2023-05-24T00:56:25.227Z,100304.33
2023-05-24T01:00:13.714Z,100303.60
2023-05-24T01:04:02.217Z,100304.98
2023-05-24T01:08:28.140Z,100312.08
2023-05-24T01:12:44.186Z,100312.76
2023-05-24T01:16:42.178Z,100314.39
2023-05-24T01:20:29.524Z,100317.33
2023-05-24T01:24:13.980Z,100316.70
2023-05-24T01:27:58.247Z,100315.83
2023-05-24T01:31:39.966Z,100312.75
2023-05-24T01:35:28.428Z,100314.37
2023-05-24T01:39:09.791Z,100314.71
2023-05-24T01:42:56.738Z,100315.61
2023-05-24T01:46:43.819Z,100319.36
2023-05-24T01:50:35.415Z,100321.91
2023-05-24T01:54:17.426Z,100319.91
2023-05-24T01:58:08.878Z,100323.72
2023-05-24T02:01:57.357Z,100321.66
2023-05-24T02:05:44.874Z,100327.23
2023-05-24T02:09:33.391Z,100330.77
2023-05-24T02:13:15.864Z,100326.32
2023-05-24T02:17:04.079Z,100328.45
2023-05-24T02:20:47.195Z,100324.73
2023-05-24T02:24:35.729Z,100328.89
2023-05-24T02:28:23.007Z,100332.89
2023-05-24T02:31:58.258Z,100333.30
2023-05-24T02:35:46.764Z,100334.75
2023-05-24T02:39:27.191Z,100334.76
2023-05-24T02:43:15.671Z,100338.54
2023-05-24T02:47:03.289Z,100344.24
2023-05-24T02:50:51.845Z,100345.62
2023-05-24T02:54:34.101Z,100343.59
2023-05-24T02:58:22.648Z,100344.05
2023-05-24T03:02:11.131Z,100341.92
2023-05-24T03:05:59.607Z,100342.32
2023-05-24T03:09:41.685Z,100339.18
2023-05-24T03:13:30.341Z,100340.10
2023-05-24T03:17:17.865Z,100341.71
2023-05-24T03:21:06.683Z,100347.89
2023-05-24T03:24:55.171Z,100349.58
2023-05-24T03:28:43.815Z,100351.00
2023-05-24T03:32:32.373Z,100350.65
2023-05-24T03:36:20.888Z,100357.10
2023-05-24T03:40:07.482Z,100353.54
2023-05-24T03:43:44.860Z,100356.84
2023-05-24T03:47:22.160Z,100359.92
2023-05-24T03:51:10.869Z,100361.55
2023-05-24T03:54:58.363Z,100366.35
2023-05-24T03:58:43.545Z,100367.79
2023-05-24T04:02:32.123Z,100365.14
2023-05-24T04:06:20.755Z,100368.80
2023-05-24T04:10:04.383Z,100362.73
2023-05-24T04:13:54.763Z,100365.42
2023-05-24T04:17:35.253Z,100368.09
2023-05-24T04:21:20.665Z,100369.66
2023-05-24T04:25:01.358Z,100366.55
2023-05-24T04:28:43.491Z,100367.02
2023-05-24T04:32:13.776Z,100366.77
2023-05-24T04:36:02.221Z,100375.45
2023-05-24T04:39:43.575Z,100373.46
2023-05-24T04:43:31.999Z,100366.15
2023-05-24T04:47:20.004Z,100361.89
2023-05-24T04:51:08.555Z,100367.73
2023-05-24T04:54:57.051Z,100374.97
2023-05-24T04:58:45.604Z,100372.18
2023-05-24T05:02:35.673Z,100375.75
2023-05-24T05:06:09.560Z,100375.27
2023-05-24T05:09:51.967Z,100380.41
2023-05-24T05:13:39.436Z,100388.38
2023-05-24T05:17:26.880Z,100385.10
2023-05-24T05:21:15.374Z,100384.93
2023-05-24T05:24:57.003Z,100387.15
2023-05-24T05:28:44.570Z,100384.95
2023-05-24T05:32:32.219Z,100380.13
2023-05-24T05:36:20.958Z,100385.30
2023-05-24T05:40:03.565Z,100385.91
2023-05-24T05:43:51.995Z,100395.67
2023-05-24T05:47:34.609Z,100391.77
2023-05-24T05:51:23.209Z,100390.55
2023-05-24T05:54:50.527Z,100393.92
2023-05-24T05:58:28.006Z,100395.38
2023-05-24T06:02:18.421Z,100397.33
2023-05-24T06:05:56.018Z,100395.23
2023-05-24T06:09:44.626Z,100395.68
2023-05-24T06:13:33.501Z,100402.16
2023-05-24T06:17:21.976Z,100400.45
2023-05-24T06:21:11.756Z,100395.40
2023-05-24T06:25:00.248Z,100392.12
2023-05-24T06:28:48.765Z,100391.95
2023-05-24T06:32:30.676Z,100396.38
2023-05-24T06:36:10.881Z,100397.90
2023-05-24T06:39:59.360Z,100393.81
2023-05-24T06:43:48.556Z,100396.77
2023-05-24T06:47:36.442Z,100402.08
2023-05-24T06:51:18.518Z,100394.73
2023-05-24T06:54:49.335Z,100390.25
2023-05-24T06:58:30.564Z,100385.62
2023-05-24T07:02:10.671Z,100387.91
2023-05-24T07:06:00.604Z,100392.10
2023-05-24T07:09:49.123Z,100395.77
2023-05-24T07:13:37.739Z,100394.95
2023-05-24T07:17:26.313Z,100392.98
2023-05-24T07:21:14.994Z,100387.91
2023-05-24T07:25:02.329Z,100393.35
2023-05-24T07:28:50.853Z,100392.75
2023-05-24T07:32:39.485Z,100389.33
2023-05-24T07:36:28.092Z,100383.17
2023-05-24T07:40:16.585Z,100383.23
2023-05-24T07:44:13.638Z,100386.30
2023-05-24T07:48:02.336Z,100384.62
2023-05-24T07:51:51.163Z,100390.83
2023-05-24T07:55:40.612Z,100392.84
2023-05-24T07:59:29.264Z,100392.55
2023-05-24T08:03:18.301Z,100393.52
2023-05-24T08:07:08.085Z,100395.21
2023-05-24T08:10:57.966Z,100398.16
2023-05-24T08:14:46.473Z,100396.30
2023-05-24T08:18:34.974Z,100393.60
2023-05-24T08:22:25.992Z,100394.10
2023-05-24T08:26:14.530Z,100397.17
2023-05-24T08:29:57.110Z,100397.27
2023-05-24T08:33:40.957Z,100392.70
2023-05-24T08:37:29.559Z,100388.73
2023-05-24T08:41:10.727Z,100382.40
2023-05-24T08:44:59.278Z,100374.41
2023-05-24T08:48:47.725Z,100374.36
2023-05-24T08:52:38.253Z,100371.05
2023-05-24T08:56:31.744Z,100372.47
2023-05-24T09:00:13.273Z,100368.02
2023-05-24T09:04:01.123Z,100370.06
2023-05-24T09:07:49.911Z,100367.58
2023-05-24T09:11:39.460Z,100369.33
2023-05-24T09:15:28.154Z,100364.43
2023-05-24T09:19:16.721Z,100366.65
2023-05-24T09:23:05.087Z,100368.93
2023-05-24T09:26:54.445Z,100365.87
2023-05-24T09:30:43.229Z,100368.73
2023-05-24T09:34:24.530Z,100376.94
2023-05-24T09:38:05.691Z,100378.14
2023-05-24T09:41:59.209Z,100374.15
2023-05-24T09:45:47.825Z,100381.52
2023-05-24T09:49:39.389Z,100382.91
2023-05-24T09:53:20.648Z,100391.23
2023-05-24T09:57:04.206Z,100395.98
2023-05-24T10:00:53.716Z,100411.63
2023-05-24T10:04:54.826Z,100430.96
2023-05-24T10:08:43.392Z,100448.59
2023-05-24T10:12:30.939Z,100448.22
2023-05-24T10:16:18.924Z,100443.41
2023-05-24T10:20:07.576Z,100435.59
2023-05-24T10:23:56.681Z,100434.85
2023-05-24T10:27:45.224Z,100434.22
2023-05-24T10:31:30.693Z,100425.93
2023-05-24T10:35:19.368Z,100431.73
2023-05-24T10:39:07.945Z,100437.79
2023-05-24T10:42:25.840Z,100425.11
2023-05-24T10:46:03.719Z,100424.95
2023-05-24T10:49:34.115Z,100431.47
2023-05-24T10:53:22.688Z,100434.46
2023-05-24T10:57:11.474Z,100432.89
2023-05-24T11:01:00.613Z,100437.29
2023-05-24T11:04:49.189Z,100444.06
2023-05-24T11:08:41.112Z,100450.84
2023-05-24T11:12:29.626Z,100448.13
2023-05-24T11:15:56.922Z,100445.48
2023-05-24T11:19:45.465Z,100445.77
2023-05-24T11:23:36.013Z,100447.45
2023-05-24T11:27:26.261Z,100446.28
2023-05-24T11:30:59.928Z,100441.77
2023-05-24T11:34:48.468Z,100442.68
2023-05-24T11:38:39.798Z,100439.00
2023-05-24T11:42:28.869Z,100436.63
2023-05-24T11:46:17.387Z,100435.85
2023-05-24T11:50:05.988Z,100432.42
2023-05-24T11:53:55.006Z,100437.48
2023-05-24T11:57:44.372Z,100436.88
2023-05-24T12:01:32.913Z,100428.13
2023-05-24T12:05:21.504Z,100423.27
2023-05-24T12:09:09.946Z,100408.95
2023-05-24T12:12:58.455Z,100400.53
2023-05-24T12:16:09.097Z,100391.41
2023-05-24T12:20:00.519Z,100383.59
2023-05-24T12:23:31.735Z,100384.77
2023-05-24T12:27:23.249Z,100384.45
2023-05-24T12:31:04.793Z,100383.73
2023-05-24T12:35:01.687Z,100377.09
2023-05-24T12:38:50.188Z,100376.34
2023-05-24T12:42:30.678Z,100371.31
2023-05-24T12:46:09.425Z,100367.33
2023-05-24T12:49:49.556Z,100365.11
2023-05-24T12:53:38.102Z,100362.88
2023-05-24T12:57:26.773Z,100362.34
2023-05-24T13:00:58.713Z,100361.25
2023-05-24T13:04:40.110Z,100358.69
2023-05-24T13:08:28.629Z,100357.57
2023-05-24T13:12:07.631Z,100353.62
2023-05-24T13:15:47.431Z,100348.95
2023-05-24T13:19:34.914Z,100345.98
2023-05-24T13:23:14.738Z,100345.79
2023-05-24T13:27:02.183Z,100343.46
2023-05-24T13:30:28.147Z,100341.98
2023-05-24T13:34:09.265Z,100337.98
2023-05-24T13:37:50.253Z,100340.23
2023-05-24T13:41:04.392Z,100338.44
2023-05-24T13:44:35.659Z,100333.62
2023-05-24T13:48:24.255Z,100330.63
2023-05-24T13:51:36.219Z,100337.55
2023-05-24T13:55:06.026Z,100337.52
2023-05-24T13:58:43.207Z,100337.51
2023-05-24T14:02:31.621Z,100338.23
2023-05-24T14:06:20.550Z,100335.23
2023-05-24T14:10:02.223Z,100334.39
2023-05-24T14:17:02.200Z,100334.27
2023-05-24T14:20:42.098Z,100335.70
2023-05-24T14:24:23.679Z,100333.70
2023-05-24T14:27:44.181Z,100332.15
2023-05-24T14:31:22.078Z,100333.97
2023-05-24T14:35:01.327Z,100332.14
2023-05-24T14:38:18.940Z,100327.47
2023-05-24T14:42:07.595Z,100326.94
2023-05-24T14:45:41.375Z,100332.71
2023-05-24T14:49:30.511Z,100340.45
2023-05-24T14:53:09.668Z,100345.55
2023-05-24T14:56:28.136Z,100352.38
2023-05-24T14:59:47.024Z,100352.98
2023-05-24T15:03:35.699Z,100351.57
2023-05-24T15:07:05.992Z,100353.36
2023-05-24T15:10:47.411Z,100353.74
2023-05-24T15:14:35.889Z,100347.83
2023-05-24T15:18:24.393Z,100345.48
2023-05-24T15:22:12.892Z,100344.41
2023-05-24T15:26:01.473Z,100346.36
2023-05-24T15:29:50.196Z,100348.65
2023-05-24T15:33:32.590Z,100347.93
2023-05-24T15:37:22.180Z,100348.91
2023-05-24T15:41:09.744Z,100354.14
2023-05-24T15:44:58.413Z,100357.49
2023-05-24T15:48:29.600Z,100368.77
2023-05-24T15:52:11.007Z,100374.63
2023-05-24T15:55:59.836Z,100376.97
2023-05-24T15:59:49.128Z,100392.55
2023-05-24T16:03:37.981Z,100397.13
2023-05-24T16:07:26.936Z,100402.04
2023-05-24T16:11:15.485Z,100406.11
2023-05-24T16:14:54.193Z,100399.83
2023-05-24T16:18:33.983Z,100390.09
2023-05-24T16:21:58.202Z,100391.28
2023-05-24T16:25:37.800Z,100392.84
2023-05-24T16:29:18.165Z,100391.20
2023-05-24T16:33:06.852Z,100391.06
2023-05-24T16:36:47.152Z,100392.70
2023-05-24T16:40:28.877Z,100395.63
2023-05-24T16:44:16.323Z,100400.42
2023-05-24T16:48:04.296Z,100401.09
2023-05-24T16:51:49.585Z,100408.73
2023-05-24T16:55:38.132Z,100417.68
2023-05-24T16:59:26.670Z,100415.06
2023-05-24T17:03:15.338Z,100419.33
2023-05-24T17:07:04.369Z,100422.73
2023-05-24T17:10:46.778Z,100428.30
2023-05-24T17:14:35.287Z,100434.14
2023-05-24T17:18:13.662Z,100436.40
2023-05-24T17:21:45.252Z,100434.13
2023-05-24T17:25:02.786Z,100439.40
2023-05-24T17:28:38.128Z,100442.64
2023-05-24T17:32:17.203Z,100452.84
2023-05-24T17:35:51.026Z,100458.40
2023-05-24T17:39:20.454Z,100467.58
2023-05-24T17:41:53.920Z,100469.87
2023-05-24T17:45:28.267Z,100471.86
2023-05-24T17:49:16.843Z,100466.46
2023-05-24T17:52:58.355Z,100471.89
2023-05-24T17:56:46.897Z,100469.91
2023-05-24T18:00:32.580Z,100474.83
2023-05-24T18:04:21.649Z,100485.64
2023-05-24T18:08:03.388Z,100490.59
2023-05-24T18:11:54.302Z,100499.86
2023-05-24T18:15:43.346Z,100506.46
2023-05-24T18:19:32.070Z,100509.40
2023-05-24T18:23:21.348Z,100505.14
2023-05-24T18:27:03.748Z,100508.73
2023-05-24T18:30:30.278Z,100515.38
2023-05-24T18:34:18.895Z,100518.05
2023-05-24T18:38:09.208Z,100522.42
2023-05-24T18:41:50.854Z,100522.98
2023-05-24T18:45:39.516Z,100518.33
2023-05-24T18:49:22.405Z,100519.26
2023-05-24T18:53:04.240Z,100524.02
2023-05-24T18:56:54.896Z,100519.39
2023-05-24T19:00:23.503Z,100516.64
2023-05-24T19:04:11.086Z,100518.15
2023-05-24T19:07:59.634Z,100522.87
2023-05-24T19:11:48.392Z,100525.13
2023-05-24T19:15:09.375Z,100522.38
2023-05-24T19:18:50.636Z,100520.87
2023-05-24T19:22:31.141Z,100521.70
2023-05-24T19:26:19.618Z,100527.79
2023-05-24T19:29:59.156Z,100536.92
2023-05-24T19:33:59.257Z,100542.08
2023-05-24T19:37:32.543Z,100542.09
2023-05-24T19:41:21.294Z,100541.90
2023-05-24T19:45:00.203Z,100539.13
2023-05-24T19:48:48.752Z,100538.17
2023-05-24T19:52:36.236Z,100537.52
2023-05-24T19:56:24.758Z,100538.83
2023-05-24T20:00:13.264Z,100542.58
2023-05-24T20:03:42.211Z,100537.98
2023-05-24T20:07:32.920Z,100539.52
2023-05-24T20:11:21.463Z,100543.92
2023-05-24T20:15:10.017Z,100543.21
2023-05-24T20:18:58.536Z,100540.42
2023-05-24T20:22:47.371Z,100542.84
2023-05-24T20:26:35.863Z,100538.02
2023-05-24T20:30:18.296Z,100538.70
2023-05-24T20:33:42.368Z,100535.09
2023-05-24T20:37:27.619Z,100541.10
2023-05-24T20:41:11.278Z,100542.80
2023-05-24T20:44:39.700Z,100542.20
2023-05-24T20:48:21.162Z,100540.21
2023-05-24T20:52:02.726Z,100534.71
2023-05-24T20:55:51.258Z,100539.27
2023-05-24T20:59:32.598Z,100537.82
2023-05-24T21:03:02.063Z,100529.80
2023-05-24T21:06:50.805Z,100530.56
2023-05-24T21:10:39.936Z,100523.88
2023-05-24T21:14:30.131Z,100525.59
2023-05-24T21:18:18.608Z,100524.59
2023-05-24T21:22:07.242Z,100521.87
2023-05-24T21:25:55.990Z,100521.97
2023-05-24T21:29:27.304Z,100521.25
2023-05-24T21:32:58.945Z,100516.03
2023-05-24T21:36:45.202Z,100509.90
2023-05-24T21:40:32.460Z,100511.12
2023-05-24T21:44:12.657Z,100511.75
2023-05-24T21:47:54.292Z,100516.28
2023-05-24T21:51:42.828Z,100514.91
2023-05-24T21:55:30.159Z,100517.85
2023-05-24T21:59:17.677Z,100514.47
2023-05-24T22:02:59.239Z,100517.56
2023-05-24T22:06:47.851Z,100518.19
2023-05-24T22:10:28.851Z,100523.25
2023-05-24T22:14:17.408Z,100518.68
2023-05-24T22:18:06.075Z,100525.30
2023-05-24T22:21:54.677Z,100528.51
2023-05-24T22:25:43.408Z,100532.48
2023-05-24T22:29:28.136Z,100534.43
2023-05-24T22:33:04.988Z,100543.51
2023-05-24T22:36:53.516Z,100544.41
2023-05-24T22:40:40.676Z,100543.25
2023-05-24T22:44:29.169Z,100547.09
2023-05-24T22:48:17.697Z,100543.31
2023-05-24T22:51:59.824Z,100543.65
2023-05-24T22:55:48.558Z,100547.08
2023-05-24T22:59:31.900Z,100546.52
2023-05-24T23:03:18.861Z,100543.23
2023-05-24T23:07:06.487Z,100543.70
2023-05-24T23:10:47.091Z,100545.10
2023-05-24T23:14:35.967Z,100546.89
2023-05-24T23:18:24.925Z,100549.04
2023-05-24T23:22:13.413Z,100552.08
2023-05-24T23:25:58.325Z,100549.95
2023-05-24T23:29:39.195Z,100553.23
2023-05-24T23:33:20.592Z,100555.47
2023-05-24T23:37:09.491Z,100560.66
2023-05-24T23:40:57.011Z,100563.66
2023-05-24T23:44:45.473Z,100565.96
2023-05-24T23:48:33.626Z,100569.48
2023-05-24T23:52:22.080Z,100563.79
2023-05-24T23:55:46.384Z,100564.95
2023-05-24T23:59:34.873Z,100561.47
